Time;durP1;ratioP1;P1;durP2;ratioP2;P2;SDS_P1;SDS_P2;PMS_P1;PMS_P2;Temp;Humidity;BMP_temperature;BMP_pressure;BME280_temperature;BME280_humidity;BME280_pressure;Samples;Min_cycle;Max_cycle;Signal;HPM_P1;HPM_P2
2022/01/27 00:00:04;;;;;;;13.68;5.18;;;;;;;8.06;100.00;99629.88;4945468;29;20031;-87
2022/01/27 00:07:42;;;;;;;11.98;4.78;;;;;;;8.48;100.00;99622.81;4922725;29;20550;-86
2022/01/27 00:12:40;;;;;;;11.77;5.05;;;;;;;8.19;100.00;99624.97;4949776;29;20047;-86
2022/01/27 00:15:11;;;;;;;11.35;4.53;;;;;;;8.35;100.00;99611.06;4947855;29;20516;-87
2022/01/27 00:17:44;;;;;;;15.20;4.78;;;;;;;8.41;100.00;99618.22;4912904;29;20043;-86
2022/01/27 00:20:12;;;;;;;12.52;3.83;;;;;;;8.39;100.00;99620.22;4925922;29;20065;-88
2022/01/27 00:22:37;;;;;;;9.85;4.00;;;;;;;8.23;100.00;99607.97;4937748;29;20038;-88
2022/01/27 00:25:05;;;;;;;10.70;4.47;;;;;;;8.41;100.00;99620.84;4952709;29;20474;-89
2022/01/27 00:27:32;;;;;;;15.25;4.65;;;;;;;8.35;100.00;99603.22;4927167;29;20039;-88
2022/01/27 00:30:00;;;;;;;8.95;4.35;;;;;;;8.25;100.00;99613.03;4924068;29;20076;-87
2022/01/27 00:32:26;;;;;;;8.93;4.10;;;;;;;8.27;100.00;99605.84;4911279;29;20031;-88
2022/01/27 00:34:53;;;;;;;11.38;4.22;;;;;;;8.33;100.00;99626.09;4918756;29;20553;-89
2022/01/27 00:37:18;;;;;;;8.23;4.22;;;;;;;8.44;100.00;99598.78;4910457;29;20044;-87
2022/01/27 00:39:44;;;;;;;9.75;4.28;;;;;;;8.17;100.00;99586.88;4917878;29;20031;-89
2022/01/27 00:42:10;;;;;;;6.15;3.80;;;;;;;8.26;100.00;99588.53;4925821;29;20046;-87
2022/01/27 00:44:36;;;;;;;6.63;4.13;;;;;;;8.15;100.00;99572.19;4910553;29;20150;-85
2022/01/27 00:47:02;;;;;;;10.73;4.13;;;;;;;8.23;100.00;99586.22;4941142;29;20062;-89
2022/01/27 00:49:27;;;;;;;13.35;4.00;;;;;;;8.34;100.00;99596.34;4914641;29;20111;-88
2022/01/27 00:51:53;;;;;;;9.05;4.32;;;;;;;8.31;100.00;99582.78;4925532;29;20134;-86
2022/01/27 00:54:23;;;;;;;7.47;3.75;;;;;;;8.20;100.00;99568.25;4926116;29;20497;-88
2022/01/27 00:57:10;;;;;;;9.10;3.90;;;;;;;8.25;100.00;99592.09;4925023;29;20406;-86
2022/01/27 01:00:09;;;;;;;10.00;3.80;;;;;;;8.32;100.00;99574.78;4923489;29;20046;-87
2022/01/27 01:07:44;;;;;;;5.85;3.47;;;;;;;8.42;100.00;99587.69;4926471;29;20035;-87
2022/01/27 01:15:15;;;;;;;5.68;3.47;;;;;;;8.49;100.00;99565.09;4929297;29;20039;-86
2022/01/27 01:33:58;;;;;;;9.80;5.90;;;;;;;8.95;100.00;99564.47;4930731;29;20075;-87
2022/01/27 01:36:43;;;;;;;6.82;4.07;;;;;;;8.77;100.00;99566.50;4915138;29;20035;-87
2022/01/27 01:39:09;;;;;;;6.53;4.43;;;;;;;8.73;100.00;99578.31;4920174;29;20051;-88
2022/01/27 01:41:34;;;;;;;9.68;4.57;;;;;;;8.88;100.00;99560.91;4924321;29;20027;-88
2022/01/27 01:44:00;;;;;;;8.43;5.72;;;;;;;8.87;100.00;99548.81;4913771;29;20070;-88
2022/01/27 01:46:25;;;;;;;8.43;6.07;;;;;;;8.77;100.00;99561.25;4919855;29;20090;-87
2022/01/27 01:48:51;;;;;;;9.57;5.72;;;;;;;8.82;100.00;99551.09;4915954;29;20035;-87
2022/01/27 01:51:26;;;;;;;11.77;5.88;;;;;;;8.80;100.00;99542.59;4916291;29;20035;-86
2022/01/27 01:53:52;;;;;;;8.10;5.75;;;;;;;8.62;100.00;99550.69;4917429;29;20028;-88
2022/01/27 01:56:17;;;;;;;10.40;6.35;;;;;;;8.75;100.00;99547.53;4946378;29;20035;-87
2022/01/27 01:58:43;;;;;;;11.25;4.65;;;;;;;8.77;100.00;99549.00;4933834;29;20035;-87
2022/01/27 02:01:09;;;;;;;6.65;4.13;;;;;;;8.84;100.00;99559.59;4923220;29;20039;-88
2022/01/27 02:03:35;;;;;;;5.38;3.35;;;;;;;8.75;100.00;99581.56;4940177;29;20066;-88
2022/01/27 02:06:01;;;;;;;4.78;3.17;;;;;;;8.71;100.00;99560.97;4918904;29;20028;-88
2022/01/27 02:08:37;;;;;;;5.13;2.95;;;;;;;8.82;100.00;99556.34;4926879;29;20067;-88
2022/01/27 02:19:26;;;;;;;4.68;2.70;;;;;;;8.94;100.00;99572.47;4948916;29;20508;-90
2022/01/27 02:21:58;;;;;;;4.05;2.60;;;;;;;9.00;100.00;99564.75;4939017;29;20099;-87
2022/01/27 02:24:26;;;;;;;4.50;2.42;;;;;;;8.98;100.00;99582.44;4924095;29;20462;-88
2022/01/27 02:26:53;;;;;;;5.13;2.25;;;;;;;8.90;100.00;99572.03;4922267;29;20028;-86
2022/01/27 02:29:20;;;;;;;3.15;2.05;;;;;;;8.91;100.00;99581.50;4940651;29;20552;-88
2022/01/27 02:31:46;;;;;;;2.53;2.10;;;;;;;8.81;100.00;99571.22;4891333;29;20039;-88
2022/01/27 02:34:13;;;;;;;2.50;2.03;;;;;;;8.85;100.00;99572.53;4905628;29;20048;-86
2022/01/27 02:36:39;;;;;;;2.95;1.90;;;;;;;8.83;100.00;99569.25;4923354;29;20039;-88
2022/01/27 02:39:08;;;;;;;3.78;1.88;;;;;;;8.84;100.00;99565.66;4931350;29;20022;-87
2022/01/27 02:42:00;;;;;;;5.38;2.28;;;;;;;8.88;100.00;99584.47;4920253;29;20034;-87
2022/01/27 02:44:44;;;;;;;5.82;2.70;;;;;;;9.05;100.00;99584.41;4930688;29;20043;-88
2022/01/27 02:47:11;;;;;;;3.42;2.58;;;;;;;9.17;100.00;99580.41;4914772;29;20521;-88
2022/01/27 02:49:38;;;;;;;2.88;2.42;;;;;;;9.10;100.00;99580.25;4909779;29;20067;-86
2022/01/27 02:52:04;;;;;;;4.03;2.40;;;;;;;9.12;100.00;99556.53;4935481;29;20046;-87
2022/01/27 02:54:30;;;;;;;3.40;2.75;;;;;;;9.34;100.00;99568.03;4925654;29;20035;-87
2022/01/27 02:56:55;;;;;;;5.72;2.70;;;;;;;9.16;100.00;99560.44;4939865;29;20125;-87
2022/01/27 02:59:21;;;;;;;4.50;2.67;;;;;;;9.38;100.00;99560.63;4943714;29;20071;-90
2022/01/27 03:01:49;;;;;;;5.18;2.85;;;;;;;9.33;100.00;99570.81;4926509;29;20043;-89
2022/01/27 03:04:15;;;;;;;4.53;2.85;;;;;;;9.37;100.00;99564.22;4898437;29;20040;-86
2022/01/27 03:06:42;;;;;;;5.68;3.17;;;;;;;9.42;100.00;99551.41;4922291;29;20028;-86
2022/01/27 03:09:08;;;;;;;5.10;3.35;;;;;;;9.49;100.00;99547.13;4939005;29;20079;-87
2022/01/27 03:11:50;;;;;;;5.30;3.63;;;;;;;9.32;100.00;99551.66;4923200;29;20422;-87
2022/01/27 03:14:21;;;;;;;6.95;3.63;;;;;;;9.35;100.00;99560.97;4948055;29;20383;-88
2022/01/27 03:16:49;;;;;;;6.05;4.22;;;;;;;9.57;100.00;99552.31;4927161;29;20116;-88
2022/01/27 03:19:15;;;;;;;6.05;4.13;;;;;;;9.56;100.00;99550.69;4925297;29;20486;-87
2022/01/27 03:21:41;;;;;;;6.68;4.13;;;;;;;9.48;100.00;99547.28;4955496;29;20039;-87
2022/01/27 03:24:07;;;;;;;6.85;4.15;;;;;;;9.66;100.00;99552.25;4916690;29;20554;-88
2022/01/27 03:26:33;;;;;;;5.65;4.20;;;;;;;9.68;100.00;99552.91;4941142;29;20082;-88
2022/01/27 03:29:00;;;;;;;6.50;4.93;;;;;;;9.64;100.00;99564.72;4939389;29;20040;-88
2022/01/27 03:31:26;;;;;;;8.75;6.07;;;;;;;9.52;100.00;99570.38;4932833;29;20039;-86
2022/01/27 03:33:52;;;;;;;8.25;6.65;;;;;;;9.43;100.00;99550.44;4926292;29;20039;-88
2022/01/27 03:36:18;;;;;;;15.32;7.25;;;;;;;9.33;100.00;99553.28;4905782;29;20015;-88
2022/01/27 03:38:44;;;;;;;8.07;5.85;;;;;;;9.72;100.00;99551.56;4929584;29;20043;-89
2022/01/27 03:41:11;;;;;;;8.48;5.95;;;;;;;9.63;100.00;99539.47;4911972;29;20032;-87
2022/01/27 03:43:39;;;;;;;9.32;6.53;;;;;;;9.57;100.00;99548.88;4930753;29;20043;-86
2022/01/27 03:46:06;;;;;;;10.48;7.13;;;;;;;9.75;100.00;99545.94;4926387;29;20036;-88
2022/01/27 03:48:32;;;;;;;11.30;8.15;;;;;;;9.73;100.00;99545.31;4942526;29;20027;-88
2022/01/27 03:50:58;;;;;;;14.52;8.57;;;;;;;9.83;100.00;99532.78;4910130;29;20039;-88
2022/01/27 03:53:24;;;;;;;11.57;8.43;;;;;;;9.86;100.00;99521.09;4926809;29;20034;-88
2022/01/27 03:55:50;;;;;;;15.75;9.98;;;;;;;10.01;100.00;99549.97;4911129;29;20058;-87
2022/01/27 03:58:15;;;;;;;16.08;10.23;;;;;;;9.84;100.00;99528.34;4935009;29;20038;-87
2022/01/27 04:00:41;;;;;;;16.77;11.20;;;;;;;9.97;100.00;99544.28;4943149;29;20031;-86
2022/01/27 04:03:09;;;;;;;16.80;11.85;;;;;;;10.12;100.00;99531.19;4940615;29;20063;-89
2022/01/27 04:05:40;;;;;;;17.10;12.35;;;;;;;9.97;100.00;99539.06;4928153;29;20035;-90
2022/01/27 04:08:08;;;;;;;14.07;11.15;;;;;;;9.96;100.00;99529.56;4928509;29;20059;-88
2022/01/27 04:10:35;;;;;;;14.38;10.82;;;;;;;9.94;100.00;99528.09;4926592;29;20038;-88
2022/01/27 04:13:02;;;;;;;13.85;9.40;;;;;;;9.88;100.00;99523.56;4944340;29;20130;-85
2022/01/27 04:15:28;;;;;;;11.82;9.30;;;;;;;9.86;100.00;99513.25;4949791;29;20125;-86
2022/01/27 04:17:53;;;;;;;11.43;8.63;;;;;;;9.93;100.00;99519.44;4930450;29;20027;-87
2022/01/27 04:20:21;;;;;;;10.82;7.28;;;;;;;9.85;100.00;99525.56;4913964;29;20122;-86
2022/01/27 04:22:48;;;;;;;9.88;7.85;;;;;;;9.90;100.00;99503.22;4921800;29;20370;-88
2022/01/27 04:25:15;;;;;;;7.20;6.20;;;;;;;9.98;100.00;99548.53;4947755;29;20039;-86
2022/01/27 04:27:46;;;;;;;8.93;6.13;;;;;;;9.92;100.00;99523.00;4946844;29;20051;-86
2022/01/27 04:30:24;;;;;;;7.72;6.55;;;;;;;10.02;100.00;99538.50;4929439;29;20035;-86
2022/01/27 04:32:54;;;;;;;8.32;6.65;;;;;;;9.99;100.00;99531.81;4910172;29;20492;-88
2022/01/27 04:35:23;;;;;;;7.97;6.57;;;;;;;10.08;100.00;99540.41;4910793;29;20028;-87
2022/01/27 04:41:02;;;;;;;9.27;6.93;;;;;;;10.17;100.00;99540.31;4942130;29;20098;-86
2022/01/27 04:43:37;;;;;;;6.82;4.80;;;;;;;10.04;100.00;99518.19;4928970;29;20081;-87
2022/01/27 04:46:18;;;;;;;6.43;4.50;;;;;;;10.11;100.00;99518.25;4910419;29;20059;-87
2022/01/27 04:48:54;;;;;;;4.75;3.90;;;;;;;10.07;100.00;99523.06;4924908;29;20035;-88
2022/01/27 04:51:23;;;;;;;4.80;3.80;;;;;;;10.04;100.00;99531.28;4925055;29;20040;-88
2022/01/27 04:56:18;;;;;;;4.85;2.70;;;;;;;10.16;100.00;99534.28;4923713;29;20031;-86
2022/01/27 04:58:46;;;;;;;2.88;2.53;;;;;;;10.07;100.00;99551.91;4950403;29;20038;-87
2022/01/27 05:01:12;;;;;;;2.47;1.98;;;;;;;10.07;100.00;99553.69;4946812;29;20109;-86
2022/01/27 05:03:46;;;;;;;3.95;2.17;;;;;;;10.01;100.00;99547.34;4914525;29;20099;-88
2022/01/27 05:06:12;;;;;;;3.88;2.55;;;;;;;10.04;100.00;99541.78;4926013;29;20482;-87
2022/01/27 05:08:38;;;;;;;5.38;2.92;;;;;;;10.10;100.00;99555.97;4923094;29;20035;-86
2022/01/27 05:11:27;;;;;;;4.53;2.70;;;;;;;10.02;100.00;99556.06;4929311;29;20371;-88
2022/01/27 05:14:08;;;;;;;4.55;2.97;;;;;;;10.13;100.00;99559.06;4932786;29;20036;-85
2022/01/27 05:16:33;;;;;;;4.70;3.25;;;;;;;10.18;100.00;99555.06;4928590;29;20031;-86
2022/01/27 05:18:59;;;;;;;5.18;3.33;;;;;;;10.03;100.00;99563.75;4923980;29;20036;-88
2022/01/27 05:21:25;;;;;;;7.30;4.13;;;;;;;10.21;100.00;99570.44;4909957;29;20035;-87
2022/01/27 05:23:51;;;;;;;6.88;4.15;;;;;;;10.23;100.00;99594.72;4929063;29;20504;-86
2022/01/27 05:26:17;;;;;;;9.18;4.80;;;;;;;10.12;100.00;99578.41;4920810;29;20031;-87
2022/01/27 05:28:43;;;;;;;13.27;5.28;;;;;;;10.11;100.00;99599.56;4914526;29;20027;-87
2022/01/27 05:31:09;;;;;;;9.43;5.32;;;;;;;10.15;100.00;99575.44;4943467;29;20397;-86
2022/01/27 05:33:35;;;;;;;5.32;4.10;;;;;;;10.17;100.00;99617.22;4941783;29;20396;-87
2022/01/27 05:36:00;;;;;;;8.50;4.57;;;;;;;10.07;100.00;99596.50;4938523;29;20027;-87
2022/01/27 05:38:26;;;;;;;6.35;3.72;;;;;;;10.10;100.00;99575.16;4933985;29;20062;-86
2022/01/27 05:40:52;;;;;;;6.47;3.83;;;;;;;10.02;100.00;99582.28;4908350;29;20035;-88
2022/01/27 05:43:18;;;;;;;7.30;3.75;;;;;;;10.03;100.00;99578.66;4939947;29;20129;-86
2022/01/27 05:45:44;;;;;;;8.07;4.15;;;;;;;10.29;100.00;99600.06;4930739;29;20031;-86
2022/01/27 05:48:09;;;;;;;5.40;3.78;;;;;;;10.12;100.00;99573.16;4935837;29;20095;-87
2022/01/27 05:50:35;;;;;;;6.88;3.08;;;;;;;10.14;100.00;99586.13;4930013;29;20039;-86
2022/01/27 05:53:01;;;;;;;7.22;3.03;;;;;;;10.23;100.00;99579.00;4931803;29;20031;-86
2022/01/27 05:55:27;;;;;;;4.63;2.78;;;;;;;10.38;100.00;99582.41;4924717;29;20439;-88
2022/01/27 05:57:52;;;;;;;2.95;2.40;;;;;;;10.28;100.00;99577.44;4926784;29;20063;-87
2022/01/27 06:00:18;;;;;;;5.82;2.95;;;;;;;10.33;100.00;99579.53;4912205;29;20040;-88
2022/01/27 06:02:44;;;;;;;3.88;2.85;;;;;;;10.19;100.00;99593.44;4930229;29;20118;-87
2022/01/27 06:05:10;;;;;;;8.82;3.15;;;;;;;10.15;100.00;99604.28;4931519;29;20035;-85
2022/01/27 06:07:36;;;;;;;5.90;3.92;;;;;;;10.20;100.00;99616.03;4928080;29;20027;-87
2022/01/27 06:10:02;;;;;;;8.60;5.00;;;;;;;10.20;100.00;99593.25;4924144;29;20038;-86
2022/01/27 06:12:27;;;;;;;6.80;4.32;;;;;;;10.10;100.00;99617.13;4948595;29;20051;-87
2022/01/27 06:14:53;;;;;;;9.95;5.60;;;;;;;10.17;100.00;99600.66;4912081;29;20359;-87
2022/01/27 06:17:19;;;;;;;9.70;4.70;;;;;;;10.27;100.00;99583.69;4938853;29;20082;-85
2022/01/27 06:19:45;;;;;;;12.05;4.65;;;;;;;10.12;100.00;99602.03;4914643;29;20099;-85
2022/01/27 06:22:13;;;;;;;9.82;4.47;;;;;;;10.23;100.00;99607.84;4940187;29;20123;-85
2022/01/27 06:24:42;;;;;;;9.73;4.40;;;;;;;10.19;100.00;99603.91;4947590;29;20374;-85
2022/01/27 06:27:07;;;;;;;9.93;4.15;;;;;;;10.14;100.00;99596.59;4913177;29;20096;-85
2022/01/27 06:29:33;;;;;;;10.90;4.20;;;;;;;10.12;100.00;99630.88;4928195;29;20115;-84
2022/01/27 06:31:59;;;;;;;11.65;4.50;;;;;;;10.12;100.00;99614.31;4927574;29;20041;-85
2022/01/27 06:34:25;;;;;;;10.45;4.47;;;;;;;10.11;100.00;99612.69;4926829;29;20054;-85
2022/01/27 06:36:50;;;;;;;11.50;4.20;;;;;;;10.01;100.00;99610.31;4929943;29;20398;-84
2022/01/27 06:39:16;;;;;;;9.68;3.75;;;;;;;9.84;100.00;99628.81;4909149;29;20031;-85
2022/01/27 06:41:43;;;;;;;8.05;3.65;;;;;;;10.09;100.00;99620.75;4911104;29;20043;-85
2022/01/27 06:44:09;;;;;;;9.18;4.13;;;;;;;10.09;100.00;99623.38;4942855;29;20036;-84
2022/01/27 06:46:35;;;;;;;10.85;4.57;;;;;;;10.07;100.00;99612.22;4946359;29;20386;-84
2022/01/27 06:49:03;;;;;;;11.43;4.18;;;;;;;10.16;100.00;99623.47;4933054;29;20063;-84
2022/01/27 06:51:29;;;;;;;9.15;3.88;;;;;;;9.89;100.00;99630.88;4924880;29;20118;-85
2022/01/27 06:53:55;;;;;;;8.82;3.55;;;;;;;9.98;100.00;99644.75;4942010;29;20371;-85
2022/01/27 06:56:20;;;;;;;13.73;3.85;;;;;;;10.10;100.00;99637.28;4927348;29;20090;-84
2022/01/27 06:58:46;;;;;;;14.10;3.30;;;;;;;9.93;100.00;99644.47;4949751;29;20062;-84
2022/01/27 07:01:12;;;;;;;5.03;2.85;;;;;;;9.90;100.00;99639.56;4941805;29;20039;-84
2022/01/27 07:03:37;;;;;;;6.43;3.50;;;;;;;10.12;100.00;99643.16;4927093;29;20051;-83
2022/01/27 07:06:03;;;;;;;7.85;3.42;;;;;;;10.22;100.00;99651.63;4944934;29;20031;-85
2022/01/27 07:08:29;;;;;;;12.35;4.47;;;;;;;10.06;100.00;99652.56;4943460;29;20037;-84
2022/01/27 07:10:55;;;;;;;9.73;5.07;;;;;;;10.06;100.00;99654.38;4945097;29;20027;-83
2022/01/27 07:13:20;;;;;;;12.65;3.75;;;;;;;9.85;100.00;99654.03;4939541;29;20043;-81
2022/01/27 07:15:46;;;;;;;8.73;3.03;;;;;;;9.99;100.00;99652.44;4950019;29;20090;-86
2022/01/27 07:18:12;;;;;;;8.02;2.70;;;;;;;9.83;100.00;99648.16;4910569;29;20035;-87
2022/01/27 07:20:38;;;;;;;7.53;2.65;;;;;;;9.60;100.00;99671.72;4925937;29;20027;-83
2022/01/27 07:23:07;;;;;;;8.88;2.42;;;;;;;9.63;100.00;99683.63;4925307;29;20114;-84
2022/01/27 07:25:33;;;;;;;9.68;2.92;;;;;;;9.79;100.00;99673.06;4943651;29;20028;-84
2022/01/27 07:27:58;;;;;;;10.75;2.75;;;;;;;9.66;100.00;99675.47;4945647;29;20144;-84
2022/01/27 07:30:27;;;;;;;14.25;3.42;;;;;;;9.81;100.00;99680.78;4945950;29;20397;-85
2022/01/27 07:32:52;;;;;;;12.30;3.28;;;;;;;9.95;100.00;99687.06;4944782;29;20059;-85
2022/01/27 07:35:18;;;;;;;9.45;3.38;;;;;;;9.73;100.00;99689.50;4926250;29;20115;-85
2022/01/27 07:37:46;;;;;;;10.85;2.70;;;;;;;9.77;100.00;99687.34;4922610;29;20034;-84
2022/01/27 07:40:12;;;;;;;19.27;2.85;;;;;;;9.69;100.00;99696.88;4948477;29;20035;-83
2022/01/27 07:42:40;;;;;;;10.23;2.63;;;;;;;9.63;100.00;99688.88;4950365;29;20078;-84
2022/01/27 07:45:07;;;;;;;12.57;3.60;;;;;;;9.52;100.00;99726.78;4946268;29;20032;-84
2022/01/27 07:47:34;;;;;;;8.05;2.80;;;;;;;9.54;100.00;99714.34;4918067;29;20449;-84
2022/01/27 07:50:00;;;;;;;11.43;2.83;;;;;;;9.62;100.00;99718.72;4931040;29;20102;-81
2022/01/27 07:52:26;;;;;;;15.50;3.20;;;;;;;9.53;100.00;99725.78;4932381;29;20066;-82
2022/01/27 07:54:51;;;;;;;8.63;2.78;;;;;;;9.53;100.00;99752.81;4927253;29;20043;-83
2022/01/27 07:57:18;;;;;;;7.93;2.80;;;;;;;9.34;100.00;99740.13;4938868;29;20062;-83
2022/01/27 07:59:44;;;;;;;12.00;3.10;;;;;;;9.47;100.00;99732.56;4957337;29;20023;-82
2022/01/27 08:02:09;;;;;;;15.63;4.07;;;;;;;9.55;100.00;99745.59;4945680;29;20035;-82
2022/01/27 08:04:35;;;;;;;15.07;3.05;;;;;;;9.31;100.00;99753.56;4943809;29;20493;-82
2022/01/27 08:07:02;;;;;;;12.95;3.13;;;;;;;9.25;100.00;99757.66;4954201;29;20027;-82
2022/01/27 08:09:30;;;;;;;12.30;2.90;;;;;;;9.33;100.00;99762.88;4929731;29;20458;-82
2022/01/27 08:11:55;;;;;;;10.82;2.78;;;;;;;9.35;100.00;99760.94;4939053;29;20147;-82
2022/01/27 08:14:21;;;;;;;8.00;3.22;;;;;;;9.16;100.00;99753.44;4921856;29;20123;-84
2022/01/27 08:16:48;;;;;;;10.55;2.50;;;;;;;9.09;100.00;99766.38;4939448;29;20029;-84
2022/01/27 08:19:13;;;;;;;13.82;2.72;;;;;;;9.19;100.00;99755.72;4922001;29;20039;-84
2022/01/27 08:21:39;;;;;;;14.65;3.42;;;;;;;9.02;100.00;99773.25;4921722;29;20083;-84
2022/01/27 08:24:04;;;;;;;17.38;3.03;;;;;;;8.85;100.00;99781.16;4938933;29;20042;-84
2022/01/27 08:26:42;;;;;;;18.30;3.00;;;;;;;8.84;100.00;99784.72;4938444;29;20034;-82
2022/01/27 08:29:16;;;;;;;12.70;2.67;;;;;;;9.06;100.00;99792.91;4919572;29;20040;-80
2022/01/27 08:32:01;;;;;;;8.70;2.00;;;;;;;8.96;100.00;99799.13;4935997;29;20041;-83
2022/01/27 08:34:35;;;;;;;14.80;2.65;;;;;;;8.82;100.00;99802.41;4939040;29;20494;-84
2022/01/27 08:37:04;;;;;;;8.77;2.45;;;;;;;9.26;100.00;99804.66;4938573;29;20031;-86
2022/01/27 08:39:31;;;;;;;12.75;2.55;;;;;;;9.26;100.00;99820.38;4943942;29;20043;-84
2022/01/27 08:41:57;;;;;;;12.27;2.80;;;;;;;9.46;100.00;99819.19;4908701;29;20485;-86
2022/01/27 08:44:23;;;;;;;14.18;2.75;;;;;;;9.33;100.00;99822.31;4938622;29;20509;-86
2022/01/27 08:46:49;;;;;;;10.85;2.80;;;;;;;9.38;100.00;99820.84;4938082;29;20031;-86
2022/01/27 08:49:16;;;;;;;10.70;2.83;;;;;;;9.41;100.00;99832.78;4938319;29;20034;-86
2022/01/27 08:51:42;;;;;;;16.38;2.95;;;;;;;9.25;100.00;99839.72;4938296;29;20501;-87
2022/01/27 08:54:07;;;;;;;14.63;3.22;;;;;;;9.19;100.00;99850.03;4921227;29;20036;-86
2022/01/27 08:56:33;;;;;;;12.57;2.63;;;;;;;9.14;100.00;99869.69;4921157;29;20032;-84
2022/01/27 08:58:58;;;;;;;11.38;2.50;;;;;;;9.24;100.00;99869.50;4937109;29;20035;-86
2022/01/27 09:01:26;;;;;;;11.90;2.75;;;;;;;9.43;100.00;99868.31;4938158;29;20086;-86
2022/01/27 09:03:53;;;;;;;18.27;2.50;;;;;;;9.39;100.00;99858.34;4921154;29;20106;-86
2022/01/27 09:06:19;;;;;;;17.02;3.25;;;;;;;9.41;100.00;99853.75;4937739;29;20044;-85
2022/01/27 09:08:46;;;;;;;12.52;2.88;;;;;;;9.34;100.00;99852.78;4920952;29;20028;-86
2022/01/27 09:11:12;;;;;;;15.20;2.67;;;;;;;9.62;100.00;99847.16;4937900;29;20028;-87
2022/01/27 09:13:38;;;;;;;9.45;2.38;;;;;;;9.60;100.00;99846.50;4912119;29;20054;-85
2022/01/27 09:16:06;;;;;;;11.00;2.35;;;;;;;9.60;100.00;99856.97;4946749;29;20027;-86
2022/01/27 09:18:32;;;;;;;11.88;2.35;;;;;;;9.38;100.00;99848.84;4949914;29;20046;-87
2022/01/27 09:21:01;;;;;;;11.55;2.80;;;;;;;9.62;100.00;99865.50;4950335;29;20035;-86
2022/01/27 09:23:27;;;;;;;11.02;2.13;;;;;;;9.60;100.00;99854.34;4925256;29;20189;-87
2022/01/27 09:26:00;;;;;;;13.38;2.63;;;;;;;9.84;100.00;99859.56;4948197;29;20035;-86
2022/01/27 09:28:26;;;;;;;;;;;;;;;9.75;100.00;99867.59;4941042;29;20050;-86
2022/01/27 09:30:51;;;;;;;9.50;1.90;;;;;;;9.85;100.00;99866.44;4931367;29;19914;-87
2022/01/27 09:33:18;;;;;;;10.23;2.40;;;;;;;9.77;100.00;99879.53;4947861;29;20038;-87
2022/01/27 09:35:44;;;;;;;14.75;2.20;;;;;;;9.69;100.00;99893.50;4952174;29;20035;-87
2022/01/27 09:38:11;;;;;;;13.48;2.60;;;;;;;9.79;100.00;99867.09;4931751;29;20042;-86
2022/01/27 09:40:37;;;;;;;11.75;2.30;;;;;;;10.13;100.00;99881.72;4945309;29;20125;-87
2022/01/27 09:43:05;;;;;;;17.13;3.40;;;;;;;10.38;100.00;99881.59;4924338;29;20086;-87
2022/01/27 09:45:35;;;;;;;8.32;2.50;;;;;;;9.81;100.00;99883.47;4930302;29;20126;-88
2022/01/27 09:48:02;;;;;;;7.63;1.95;;;;;;;9.83;100.00;99884.13;4925737;29;20115;-87
2022/01/27 09:53:02;;;;;;;11.63;2.63;;;;;;;10.35;100.00;99884.56;4928673;29;20067;-85
2022/01/27 09:55:27;;;;;;;14.05;2.50;;;;;;;10.21;100.00;99895.78;4928376;29;20429;-85
2022/01/27 09:57:58;;;;;;;9.45;2.20;;;;;;;10.18;100.00;99888.25;4930476;29;20074;-87
2022/01/27 10:00:24;;;;;;;9.77;2.10;;;;;;;10.11;100.00;99893.34;4929206;29;20046;-87
2022/01/27 10:03:08;;;;;;;8.80;3.05;;;;;;;10.32;100.00;99898.03;4946046;29;20469;-86
2022/01/27 10:05:34;;;;;;;13.73;2.38;;;;;;;10.08;100.00;99905.03;4947985;29;20535;-87
2022/01/27 10:08:03;;;;;;;10.95;2.45;;;;;;;9.93;100.00;99902.31;4929866;29;20449;-87
2022/01/27 10:10:42;;;;;;;11.25;2.20;;;;;;;9.88;100.00;99906.41;4944952;28;20438;-85
2022/01/27 10:13:10;;;;;;;9.60;2.20;;;;;;;9.99;100.00;99908.66;4928158;29;20051;-86
2022/01/27 10:15:43;;;;;;;13.88;2.42;;;;;;;10.09;100.00;99925.03;4945095;29;20079;-87
2022/01/27 10:18:10;;;;;;;9.50;2.42;;;;;;;10.04;100.00;99931.75;4928683;29;20043;-87
2022/01/27 10:20:58;;;;;;;11.18;2.47;;;;;;;10.14;100.00;99941.06;4950431;29;20110;-84
2022/01/27 10:23:28;;;;;;;10.95;2.67;;;;;;;9.90;100.00;99951.63;4944014;29;20409;-87
2022/01/27 10:25:59;;;;;;;11.63;2.10;;;;;;;9.84;100.00;99932.97;4941570;29;20415;-87
2022/01/27 10:31:09;;;;;;;12.82;2.22;;;;;;;9.69;100.00;99952.97;4928889;29;20039;-86
2022/01/27 10:33:50;;;;;;;9.68;2.38;;;;;;;10.03;100.00;99957.19;4947490;29;20039;-85
2022/01/27 10:36:36;;;;;;;10.25;2.45;;;;;;;9.89;100.00;99955.25;4931472;29;20494;-86
2022/01/27 10:39:05;;;;;;;12.90;2.20;;;;;;;9.77;100.00;99963.44;4941879;29;20071;-86
2022/01/27 10:41:34;;;;;;;11.90;1.80;;;;;;;9.60;100.00;99953.97;4939088;29;20501;-87
2022/01/27 10:44:10;;;;;;;7.78;1.50;;;;;;;9.47;100.00;99988.53;4942163;29;20039;-86
2022/01/27 10:46:42;;;;;;;8.98;1.90;;;;;;;9.60;100.00;99983.63;4902090;29;20060;-87
2022/01/27 10:49:12;;;;;;;11.85;2.10;;;;;;;9.66;100.00;99990.03;4922668;29;20036;-86
2022/01/27 10:51:48;;;;;;;4.60;1.30;;;;;;;10.01;100.00;99990.59;4945787;29;20123;-87
2022/01/27 10:54:56;;;;;;;8.45;1.92;;;;;;;9.83;100.00;99996.88;4943437;29;20039;-86
2022/01/27 10:57:05;;;;;;;9.10;1.92;;;;;;;9.78;100.00;100014.09;4937011;29;20054;-87
2022/01/27 10:59:33;;;;;;;6.65;1.73;;;;;;;9.75;100.00;100027.53;4946526;29;20038;-85
2022/01/27 11:02:03;;;;;;;10.15;1.60;;;;;;;9.98;100.00;100027.66;4932572;29;20027;-86
2022/01/27 11:04:37;;;;;;;8.32;1.60;;;;;;;10.13;100.00;100014.72;4945593;29;20454;-86
2022/01/27 11:07:05;;;;;;;8.77;1.70;;;;;;;10.30;100.00;100031.22;4926103;29;20119;-86
2022/01/27 11:09:38;;;;;;;12.15;1.88;;;;;;;9.86;100.00;100046.38;4928776;29;20042;-87
2022/01/27 11:12:08;;;;;;;4.15;1.15;;;;;;;9.73;100.00;100043.41;4947008;28;20140;-86
2022/01/27 11:14:36;;;;;;;7.25;1.30;;;;;;;9.87;100.00;100036.69;4946386;29;20482;-86
2022/01/27 11:17:05;;;;;;;8.43;1.60;;;;;;;9.97;100.00;100041.75;4945726;29;20058;-86
2022/01/27 11:24:54;;;;;;;9.20;1.90;;;;;;;9.84;100.00;100074.56;4943171;29;20027;-87
2022/01/27 11:27:22;;;;;;;5.47;1.60;;;;;;;10.03;100.00;100041.13;4925172;29;20098;-86
2022/01/27 11:29:56;;;;;;;9.23;2.15;;;;;;;10.02;100.00;100042.09;4948881;29;20095;-87
2022/01/27 11:32:35;;;;;;;8.45;1.60;;;;;;;9.98;100.00;100049.47;4928354;29;20059;-87
2022/01/27 11:35:01;;;;;;;7.45;2.15;;;;;;;10.03;100.00;100035.88;4925095;29;20056;-85
2022/01/27 11:37:32;;;;;;;10.63;2.30;;;;;;;10.20;100.00;100025.31;4926469;29;20023;-87
2022/01/27 11:40:06;;;;;;;11.30;2.78;;;;;;;9.86;100.00;100050.78;4924472;29;20043;-85
2022/01/27 11:42:34;;;;;;;11.45;1.83;;;;;;;9.90;100.00;100040.81;4930465;29;20031;-86
2022/01/27 11:45:36;;;;;;;9.15;2.95;;;;;;;10.03;100.00;100035.88;4909940;29;20031;-83
2022/01/27 11:48:08;;;;;;;11.18;2.00;;;;;;;9.69;100.00;100018.53;4856636;29;20107;-85
2022/01/27 11:50:58;;;;;;;8.63;1.93;;;;;;;9.75;100.00;100020.47;4931632;29;20043;-86
2022/01/27 11:53:31;;;;;;;7.68;2.00;;;;;;;9.92;100.00;100023.09;4947522;29;20040;-84
2022/01/27 11:56:00;;;;;;;7.47;1.80;;;;;;;9.62;100.00;100049.81;4948009;29;20473;-83
2022/01/27 11:58:26;;;;;;;5.10;1.58;;;;;;;9.86;100.00;100040.31;4928781;29;20145;-83
2022/01/27 12:01:13;;;;;;;11.30;2.20;;;;;;;9.98;100.00;100051.28;4947710;29;20039;-84
2022/01/27 12:03:40;;;;;;;8.40;2.08;;;;;;;9.74;100.00;100084.38;4925165;29;20075;-85
2022/01/27 12:06:20;;;;;;;10.75;2.20;;;;;;;9.63;100.00;100063.72;4941082;29;20036;-87
2022/01/27 12:08:46;;;;;;;12.88;2.45;;;;;;;10.05;100.00;100060.13;4948319;29;20038;-84
2022/01/27 12:11:42;;;;;;;9.90;2.00;;;;;;;10.15;100.00;100054.72;4948243;29;20047;-85
2022/01/27 12:14:08;;;;;;;8.38;2.10;;;;;;;10.27;100.00;100063.06;4943136;29;20036;-83
2022/01/27 12:19:02;;;;;;;8.60;1.67;;;;;;;10.25;100.00;100078.16;4949410;29;20030;-85
2022/01/27 12:21:48;;;;;;;10.43;2.17;;;;;;;10.38;100.00;100085.50;4950155;29;20027;-83
2022/01/27 12:24:17;;;;;;;8.80;2.15;;;;;;;10.53;100.00;100086.50;4927955;29;20038;-84
2022/01/27 12:26:46;;;;;;;8.57;2.15;;;;;;;10.59;100.00;100090.22;4943147;29;20478;-84
2022/01/27 12:29:19;;;;;;;12.07;2.17;;;;;;;9.96;100.00;100110.94;4942252;29;20031;-84
2022/01/27 12:31:46;;;;;;;7.63;2.00;;;;;;;10.10;100.00;100083.22;4945584;29;20429;-83
2022/01/27 12:34:14;;;;;;;8.25;2.00;;;;;;;9.93;100.00;100096.38;4929645;29;20410;-82